sensor_id;sensor_type;location;lat;lon;timestamp;P1;durP1;ratioP1;P2;durP2;ratioP2
31004;SDS011;17676;52.254;4.490;2022-10-26T00:02:12;11.60;;;7.78;;
31004;SDS011;17676;52.254;4.490;2022-10-26T00:04:37;9.40;;;7.63;;
31004;SDS011;17676;52.254;4.490;2022-10-26T00:07:03;9.10;;;7.10;;
31004;SDS011;17676;52.254;4.490;2022-10-26T00:09:28;12.50;;;7.40;;
31004;SDS011;17676;52.254;4.490;2022-10-26T00:11:53;9.00;;;7.22;;
31004;SDS011;17676;52.254;4.490;2022-10-26T00:14:19;12.50;;;8.00;;
31004;SDS011;17676;52.254;4.490;2022-10-26T00:16:44;9.82;;;7.45;;
31004;SDS011;17676;52.254;4.490;2022-10-26T00:19:09;10.90;;;7.53;;
31004;SDS011;17676;52.254;4.490;2022-10-26T00:21:35;18.15;;;8.20;;
31004;SDS011;17676;52.254;4.490;2022-10-26T00:24:00;12.82;;;7.95;;
31004;SDS011;17676;52.254;4.490;2022-10-26T00:26:25;9.77;;;7.47;;
31004;SDS011;17676;52.254;4.490;2022-10-26T00:28:54;12.88;;;7.95;;
31004;SDS011;17676;52.254;4.490;2022-10-26T00:31:21;10.65;;;7.88;;
31004;SDS011;17676;52.254;4.490;2022-10-26T00:33:46;12.18;;;7.38;;
31004;SDS011;17676;52.254;4.490;2022-10-26T00:36:12;14.73;;;7.82;;
31004;SDS011;17676;52.254;4.490;2022-10-26T00:38:41;16.98;;;8.15;;
31004;SDS011;17676;52.254;4.490;2022-10-26T00:41:13;10.18;;;7.47;;
31004;SDS011;17676;52.254;4.490;2022-10-26T00:43:40;15.68;;;8.40;;
31004;SDS011;17676;52.254;4.490;2022-10-26T00:46:07;10.98;;;7.38;;
31004;SDS011;17676;52.254;4.490;2022-10-26T00:48:35;13.00;;;7.53;;
31004;SDS011;17676;52.254;4.490;2022-10-26T00:51:03;10.15;;;7.78;;
31004;SDS011;17676;52.254;4.490;2022-10-26T00:53:29;13.77;;;8.55;;
31004;SDS011;17676;52.254;4.490;2022-10-26T00:55:56;9.40;;;8.18;;
31004;SDS011;17676;52.254;4.490;2022-10-26T00:58:21;12.25;;;8.00;;
31004;SDS011;17676;52.254;4.490;2022-10-26T01:00:47;10.00;;;9.00;;
31004;SDS011;17676;52.254;4.490;2022-10-26T01:03:13;13.63;;;8.07;;
31004;SDS011;17676;52.254;4.490;2022-10-26T01:05:41;11.52;;;8.07;;
31004;SDS011;17676;52.254;4.490;2022-10-26T01:08:07;11.63;;;8.02;;
31004;SDS011;17676;52.254;4.490;2022-10-26T01:10:33;12.32;;;8.45;;
31004;SDS011;17676;52.254;4.490;2022-10-26T01:12:59;13.02;;;8.52;;
31004;SDS011;17676;52.254;4.490;2022-10-26T01:18:07;11.85;;;8.40;;
31004;SDS011;17676;52.254;4.490;2022-10-26T01:25:48;14.10;;;8.73;;
31004;SDS011;17676;52.254;4.490;2022-10-26T01:31:02;10.70;;;8.80;;
31004;SDS011;17676;52.254;4.490;2022-10-26T01:33:30;10.98;;;7.68;;
31004;SDS011;17676;52.254;4.490;2022-10-26T01:38:54;10.75;;;8.27;;
31004;SDS011;17676;52.254;4.490;2022-10-26T01:43:58;10.50;;;8.40;;
31004;SDS011;17676;52.254;4.490;2022-10-26T01:46:26;11.95;;;7.57;;
31004;SDS011;17676;52.254;4.490;2022-10-26T01:48:53;10.43;;;8.70;;
31004;SDS011;17676;52.254;4.490;2022-10-26T01:51:19;13.82;;;8.18;;
31004;SDS011;17676;52.254;4.490;2022-10-26T01:53:46;11.20;;;7.70;;
31004;SDS011;17676;52.254;4.490;2022-10-26T01:56:13;15.13;;;8.60;;
31004;SDS011;17676;52.254;4.490;2022-10-26T01:58:47;13.82;;;8.90;;
31004;SDS011;17676;52.254;4.490;2022-10-26T02:03:49;17.73;;;7.70;;
31004;SDS011;17676;52.254;4.490;2022-10-26T02:06:21;10.77;;;7.93;;
31004;SDS011;17676;52.254;4.490;2022-10-26T02:11:30;11.35;;;7.80;;
31004;SDS011;17676;52.254;4.490;2022-10-26T02:14:04;14.82;;;8.43;;
31004;SDS011;17676;52.254;4.490;2022-10-26T02:16:48;11.05;;;7.40;;
31004;SDS011;17676;52.254;4.490;2022-10-26T02:21:44;15.82;;;7.57;;
31004;SDS011;17676;52.254;4.490;2022-10-26T02:24:11;13.00;;;7.68;;
31004;SDS011;17676;52.254;4.490;2022-10-26T02:26:38;13.23;;;7.80;;
31004;SDS011;17676;52.254;4.490;2022-10-26T02:29:09;9.00;;;7.70;;
31004;SDS011;17676;52.254;4.490;2022-10-26T02:31:35;13.93;;;8.68;;
31004;SDS011;17676;52.254;4.490;2022-10-26T02:34:03;12.48;;;8.07;;
31004;SDS011;17676;52.254;4.490;2022-10-26T02:36:31;9.27;;;7.85;;
31004;SDS011;17676;52.254;4.490;2022-10-26T02:39:02;9.40;;;7.93;;
31004;SDS011;17676;52.254;4.490;2022-10-26T02:41:28;14.00;;;8.63;;
31004;SDS011;17676;52.254;4.490;2022-10-26T02:44:05;13.48;;;7.45;;
31004;SDS011;17676;52.254;4.490;2022-10-26T02:46:32;11.18;;;8.18;;
31004;SDS011;17676;52.254;4.490;2022-10-26T02:48:57;12.73;;;8.02;;
31004;SDS011;17676;52.254;4.490;2022-10-26T02:51:30;10.60;;;7.85;;
31004;SDS011;17676;52.254;4.490;2022-10-26T02:56:36;11.02;;;7.50;;
31004;SDS011;17676;52.254;4.490;2022-10-26T02:59:04;10.55;;;7.78;;
31004;SDS011;17676;52.254;4.490;2022-10-26T03:01:31;10.27;;;7.30;;
31004;SDS011;17676;52.254;4.490;2022-10-26T03:03:57;10.23;;;8.15;;
31004;SDS011;17676;52.254;4.490;2022-10-26T03:06:24;10.10;;;7.25;;
31004;SDS011;17676;52.254;4.490;2022-10-26T03:08:50;12.48;;;6.85;;
31004;SDS011;17676;52.254;4.490;2022-10-26T03:11:15;11.25;;;7.18;;
31004;SDS011;17676;52.254;4.490;2022-10-26T03:13:41;15.18;;;8.23;;
31004;SDS011;17676;52.254;4.490;2022-10-26T03:16:06;12.13;;;7.22;;
31004;SDS011;17676;52.254;4.490;2022-10-26T03:18:31;14.60;;;6.47;;
31004;SDS011;17676;52.254;4.490;2022-10-26T03:20:56;10.15;;;7.22;;
31004;SDS011;17676;52.254;4.490;2022-10-26T03:23:22;9.80;;;8.05;;
31004;SDS011;17676;52.254;4.490;2022-10-26T03:25:47;7.85;;;6.32;;
31004;SDS011;17676;52.254;4.490;2022-10-26T03:28:12;10.73;;;6.63;;
31004;SDS011;17676;52.254;4.490;2022-10-26T03:30:38;11.30;;;7.80;;
31004;SDS011;17676;52.254;4.490;2022-10-26T03:33:03;11.65;;;7.57;;
31004;SDS011;17676;52.254;4.490;2022-10-26T03:35:29;11.05;;;7.22;;
31004;SDS011;17676;52.254;4.490;2022-10-26T03:37:54;13.48;;;7.65;;
31004;SDS011;17676;52.254;4.490;2022-10-26T03:40:19;12.65;;;7.13;;
31004;SDS011;17676;52.254;4.490;2022-10-26T03:42:45;13.27;;;7.55;;
31004;SDS011;17676;52.254;4.490;2022-10-26T03:45:10;10.20;;;7.82;;
31004;SDS011;17676;52.254;4.490;2022-10-26T03:47:45;8.95;;;7.30;;
31004;SDS011;17676;52.254;4.490;2022-10-26T03:50:12;14.40;;;7.95;;
31004;SDS011;17676;52.254;4.490;2022-10-26T03:52:39;12.38;;;7.75;;
31004;SDS011;17676;52.254;4.490;2022-10-26T03:55:05;11.02;;;7.53;;
31004;SDS011;17676;52.254;4.490;2022-10-26T03:57:31;9.13;;;6.60;;
31004;SDS011;17676;52.254;4.490;2022-10-26T03:59:56;15.32;;;7.30;;
31004;SDS011;17676;52.254;4.490;2022-10-26T04:02:22;10.18;;;6.13;;
31004;SDS011;17676;52.254;4.490;2022-10-26T04:04:47;12.07;;;6.70;;
31004;SDS011;17676;52.254;4.490;2022-10-26T04:07:13;10.35;;;6.75;;
31004;SDS011;17676;52.254;4.490;2022-10-26T04:09:38;11.15;;;6.15;;
31004;SDS011;17676;52.254;4.490;2022-10-26T04:12:03;12.15;;;7.43;;
31004;SDS011;17676;52.254;4.490;2022-10-26T04:14:29;12.32;;;6.82;;
31004;SDS011;17676;52.254;4.490;2022-10-26T04:16:54;9.52;;;6.63;;
31004;SDS011;17676;52.254;4.490;2022-10-26T04:19:19;12.30;;;6.63;;
31004;SDS011;17676;52.254;4.490;2022-10-26T04:21:44;11.02;;;7.00;;
31004;SDS011;17676;52.254;4.490;2022-10-26T04:24:10;10.75;;;6.40;;
31004;SDS011;17676;52.254;4.490;2022-10-26T04:26:36;10.57;;;6.53;;
31004;SDS011;17676;52.254;4.490;2022-10-26T04:29:01;8.32;;;6.60;;
31004;SDS011;17676;52.254;4.490;2022-10-26T04:31:31;11.30;;;6.85;;
31004;SDS011;17676;52.254;4.490;2022-10-26T04:33:56;12.35;;;6.40;;
31004;SDS011;17676;52.254;4.490;2022-10-26T04:36:22;9.65;;;6.45;;
31004;SDS011;17676;52.254;4.490;2022-10-26T04:38:50;7.47;;;6.13;;
31004;SDS011;17676;52.254;4.490;2022-10-26T04:41:16;10.25;;;6.40;;
31004;SDS011;17676;52.254;4.490;2022-10-26T04:43:41;7.82;;;6.25;;
31004;SDS011;17676;52.254;4.490;2022-10-26T04:46:07;8.98;;;6.13;;
31004;SDS011;17676;52.254;4.490;2022-10-26T04:48:32;9.57;;;5.47;;
31004;SDS011;17676;52.254;4.490;2022-10-26T04:50:58;11.75;;;6.05;;
31004;SDS011;17676;52.254;4.490;2022-10-26T04:53:26;11.02;;;6.25;;
31004;SDS011;17676;52.254;4.490;2022-10-26T04:55:55;8.18;;;5.50;;
31004;SDS011;17676;52.254;4.490;2022-10-26T04:58:21;8.05;;;5.93;;
31004;SDS011;17676;52.254;4.490;2022-10-26T05:00:46;12.50;;;5.95;;
31004;SDS011;17676;52.254;4.490;2022-10-26T05:03:20;9.75;;;6.28;;
31004;SDS011;17676;52.254;4.490;2022-10-26T05:05:46;8.75;;;6.00;;
31004;SDS011;17676;52.254;4.490;2022-10-26T05:08:12;6.57;;;5.53;;
31004;SDS011;17676;52.254;4.490;2022-10-26T05:10:37;9.65;;;5.82;;
31004;SDS011;17676;52.254;4.490;2022-10-26T05:13:03;10.25;;;5.90;;
31004;SDS011;17676;52.254;4.490;2022-10-26T05:15:28;9.55;;;5.13;;
31004;SDS011;17676;52.254;4.490;2022-10-26T05:17:55;8.40;;;5.38;;
31004;SDS011;17676;52.254;4.490;2022-10-26T05:20:21;9.70;;;5.40;;
31004;SDS011;17676;52.254;4.490;2022-10-26T05:22:54;10.48;;;5.93;;
31004;SDS011;17676;52.254;4.490;2022-10-26T05:25:19;5.85;;;5.35;;
31004;SDS011;17676;52.254;4.490;2022-10-26T05:27:44;10.90;;;6.35;;
31004;SDS011;17676;52.254;4.490;2022-10-26T05:30:10;13.48;;;6.18;;
31004;SDS011;17676;52.254;4.490;2022-10-26T05:32:35;8.85;;;6.22;;
31004;SDS011;17676;52.254;4.490;2022-10-26T05:35:00;10.65;;;5.97;;
31004;SDS011;17676;52.254;4.490;2022-10-26T05:37:29;8.80;;;5.97;;
31004;SDS011;17676;52.254;4.490;2022-10-26T05:39:55;9.98;;;6.07;;
31004;SDS011;17676;52.254;4.490;2022-10-26T05:42:20;9.90;;;6.60;;
31004;SDS011;17676;52.254;4.490;2022-10-26T05:44:45;8.45;;;5.80;;
31004;SDS011;17676;52.254;4.490;2022-10-26T05:47:11;7.72;;;6.13;;
31004;SDS011;17676;52.254;4.490;2022-10-26T05:49:36;8.98;;;6.25;;
31004;SDS011;17676;52.254;4.490;2022-10-26T05:52:02;9.50;;;6.72;;
31004;SDS011;17676;52.254;4.490;2022-10-26T05:54:28;11.82;;;6.25;;
31004;SDS011;17676;52.254;4.490;2022-10-26T05:56:54;11.30;;;7.13;;
31004;SDS011;17676;52.254;4.490;2022-10-26T05:59:20;9.68;;;6.20;;
31004;SDS011;17676;52.254;4.490;2022-10-26T06:04:20;14.00;;;6.63;;
31004;SDS011;17676;52.254;4.490;2022-10-26T06:06:46;11.55;;;6.57;;
31004;SDS011;17676;52.254;4.490;2022-10-26T06:09:17;11.68;;;6.90;;
31004;SDS011;17676;52.254;4.490;2022-10-26T06:11:42;7.32;;;6.40;;
31004;SDS011;17676;52.254;4.490;2022-10-26T06:14:08;10.35;;;7.38;;
31004;SDS011;17676;52.254;4.490;2022-10-26T06:16:37;11.55;;;6.85;;
31004;SDS011;17676;52.254;4.490;2022-10-26T06:32:00;11.05;;;7.55;;
31004;SDS011;17676;52.254;4.490;2022-10-26T06:34:26;12.13;;;6.93;;
31004;SDS011;17676;52.254;4.490;2022-10-26T06:36:56;10.25;;;7.00;;
31004;SDS011;17676;52.254;4.490;2022-10-26T06:39:22;9.77;;;6.63;;
31004;SDS011;17676;52.254;4.490;2022-10-26T06:41:49;10.82;;;6.22;;
31004;SDS011;17676;52.254;4.490;2022-10-26T06:44:22;11.93;;;6.25;;
31004;SDS011;17676;52.254;4.490;2022-10-26T06:46:50;12.57;;;5.85;;
31004;SDS011;17676;52.254;4.490;2022-10-26T06:49:19;10.13;;;5.53;;
31004;SDS011;17676;52.254;4.490;2022-10-26T06:54:27;10.23;;;5.65;;
31004;SDS011;17676;52.254;4.490;2022-10-26T06:56:54;9.70;;;6.10;;
31004;SDS011;17676;52.254;4.490;2022-10-26T07:02:04;9.05;;;5.38;;
31004;SDS011;17676;52.254;4.490;2022-10-26T07:04:29;8.77;;;5.35;;
31004;SDS011;17676;52.254;4.490;2022-10-26T07:06:54;10.02;;;5.80;;
31004;SDS011;17676;52.254;4.490;2022-10-26T07:09:21;9.07;;;4.80;;
31004;SDS011;17676;52.254;4.490;2022-10-26T07:11:46;8.52;;;5.32;;
31004;SDS011;17676;52.254;4.490;2022-10-26T07:14:12;7.03;;;4.45;;
31004;SDS011;17676;52.254;4.490;2022-10-26T07:16:37;9.95;;;4.88;;
31004;SDS011;17676;52.254;4.490;2022-10-26T07:19:02;11.57;;;4.90;;
31004;SDS011;17676;52.254;4.490;2022-10-26T07:21:28;9.75;;;4.78;;
31004;SDS011;17676;52.254;4.490;2022-10-26T07:23:53;10.75;;;4.32;;
31004;SDS011;17676;52.254;4.490;2022-10-26T07:26:21;16.10;;;4.97;;
31004;SDS011;17676;52.254;4.490;2022-10-26T07:28:47;7.88;;;3.88;;
31004;SDS011;17676;52.254;4.490;2022-10-26T07:31:18;8.27;;;4.10;;
31004;SDS011;17676;52.254;4.490;2022-10-26T07:33:44;9.98;;;4.00;;
31004;SDS011;17676;52.254;4.490;2022-10-26T07:36:10;11.57;;;3.47;;
31004;SDS011;17676;52.254;4.490;2022-10-26T07:38:35;12.18;;;4.05;;
31004;SDS011;17676;52.254;4.490;2022-10-26T07:41:01;6.50;;;3.53;;
31004;SDS011;17676;52.254;4.490;2022-10-26T07:43:30;4.65;;;3.33;;
31004;SDS011;17676;52.254;4.490;2022-10-26T07:45:55;6.65;;;3.20;;
31004;SDS011;17676;52.254;4.490;2022-10-26T07:48:21;5.63;;;3.20;;
31004;SDS011;17676;52.254;4.490;2022-10-26T07:50:46;5.50;;;3.30;;
31004;SDS011;17676;52.254;4.490;2022-10-26T07:53:13;6.10;;;3.30;;
31004;SDS011;17676;52.254;4.490;2022-10-26T07:55:39;7.65;;;4.03;;
31004;SDS011;17676;52.254;4.490;2022-10-26T07:58:04;8.25;;;3.63;;
31004;SDS011;17676;52.254;4.490;2022-10-26T08:00:30;8.73;;;3.03;;
31004;SDS011;17676;52.254;4.490;2022-10-26T08:02:55;6.28;;;3.05;;
31004;SDS011;17676;52.254;4.490;2022-10-26T08:05:21;5.38;;;3.03;;
31004;SDS011;17676;52.254;4.490;2022-10-26T08:07:46;9.95;;;2.83;;
31004;SDS011;17676;52.254;4.490;2022-10-26T08:10:12;5.07;;;2.78;;
31004;SDS011;17676;52.254;4.490;2022-10-26T08:12:37;9.73;;;3.00;;
31004;SDS011;17676;52.254;4.490;2022-10-26T08:15:03;4.22;;;2.50;;
31004;SDS011;17676;52.254;4.490;2022-10-26T08:23:35;5.65;;;2.10;;
31004;SDS011;17676;52.254;4.490;2022-10-26T08:26:03;5.32;;;1.40;;
31004;SDS011;17676;52.254;4.490;2022-10-26T08:28:29;5.07;;;1.35;;
31004;SDS011;17676;52.254;4.490;2022-10-26T08:30:55;5.57;;;1.38;;
31004;SDS011;17676;52.254;4.490;2022-10-26T08:33:21;5.88;;;1.63;;
31004;SDS011;17676;52.254;4.490;2022-10-26T08:35:47;7.05;;;1.45;;
31004;SDS011;17676;52.254;4.490;2022-10-26T08:38:12;3.40;;;1.10;;
31004;SDS011;17676;52.254;4.490;2022-10-26T08:40:39;3.67;;;0.80;;
31004;SDS011;17676;52.254;4.490;2022-10-26T08:48:20;3.78;;;1.20;;
31004;SDS011;17676;52.254;4.490;2022-10-26T08:56:48;3.63;;;0.82;;
31004;SDS011;17676;52.254;4.490;2022-10-26T09:01:54;3.90;;;0.70;;
31004;SDS011;17676;52.254;4.490;2022-10-26T09:04:42;4.88;;;0.95;;
31004;SDS011;17676;52.254;4.490;2022-10-26T09:07:36;3.20;;;0.80;;
31004;SDS011;17676;52.254;4.490;2022-10-26T09:10:12;6.43;;;0.80;;
31004;SDS011;17676;52.254;4.490;2022-10-26T09:20:34;3.67;;;0.60;;
31004;SDS011;17676;52.254;4.490;2022-10-26T09:38:02;5.35;;;0.77;;
31004;SDS011;17676;52.254;4.490;2022-10-26T09:46:51;6.63;;;1.10;;
31004;SDS011;17676;52.254;4.490;2022-10-26T09:49:17;6.93;;;0.68;;
31004;SDS011;17676;52.254;4.490;2022-10-26T09:51:44;4.55;;;0.80;;
31004;SDS011;17676;52.254;4.490;2022-10-26T09:54:15;8.35;;;0.80;;
31004;SDS011;17676;52.254;4.490;2022-10-26T09:56:42;5.22;;;0.70;;
31004;SDS011;17676;52.254;4.490;2022-10-26T09:59:08;3.70;;;0.80;;
31004;SDS011;17676;52.254;4.490;2022-10-26T10:01:34;8.13;;;0.80;;
31004;SDS011;17676;52.254;4.490;2022-10-26T10:06:45;9.00;;;0.90;;
31004;SDS011;17676;52.254;4.490;2022-10-26T10:11:49;4.30;;;0.60;;
31004;SDS011;17676;52.254;4.490;2022-10-26T10:14:23;4.32;;;0.38;;
31004;SDS011;17676;52.254;4.490;2022-10-26T10:16:52;7.35;;;0.73;;
31004;SDS011;17676;52.254;4.490;2022-10-26T10:19:25;4.63;;;0.57;;
31004;SDS011;17676;52.254;4.490;2022-10-26T10:21:53;6.50;;;0.70;;
31004;SDS011;17676;52.254;4.490;2022-10-26T10:24:26;4.53;;;0.65;;
31004;SDS011;17676;52.254;4.490;2022-10-26T10:27:02;7.47;;;0.80;;
31004;SDS011;17676;52.254;4.490;2022-10-26T10:29:29;5.35;;;0.70;;
31004;SDS011;17676;52.254;4.490;2022-10-26T10:31:55;4.18;;;1.13;;
31004;SDS011;17676;52.254;4.490;2022-10-26T10:34:22;6.15;;;0.98;;
31004;SDS011;17676;52.254;4.490;2022-10-26T10:36:48;4.43;;;0.65;;
31004;SDS011;17676;52.254;4.490;2022-10-26T10:39:47;6.60;;;0.60;;
31004;SDS011;17676;52.254;4.490;2022-10-26T10:42:15;5.63;;;0.52;;
31004;SDS011;17676;52.254;4.490;2022-10-26T10:44:41;7.53;;;0.60;;
31004;SDS011;17676;52.254;4.490;2022-10-26T10:47:15;5.78;;;0.70;;
31004;SDS011;17676;52.254;4.490;2022-10-26T10:49:42;4.72;;;0.95;;
31004;SDS011;17676;52.254;4.490;2022-10-26T10:52:22;4.18;;;0.82;;
31004;SDS011;17676;52.254;4.490;2022-10-26T10:54:49;7.15;;;0.60;;
31004;SDS011;17676;52.254;4.490;2022-10-26T10:57:22;4.40;;;0.68;;
31004;SDS011;17676;52.254;4.490;2022-10-26T11:00:07;5.88;;;0.65;;
31004;SDS011;17676;52.254;4.490;2022-10-26T11:05:02;5.30;;;0.85;;
31004;SDS011;17676;52.254;4.490;2022-10-26T11:07:29;4.32;;;0.40;;
31004;SDS011;17676;52.254;4.490;2022-10-26T11:09:56;5.75;;;0.45;;
31004;SDS011;17676;52.254;4.490;2022-10-26T11:12:27;3.47;;;0.30;;
31004;SDS011;17676;52.254;4.490;2022-10-26T11:15:00;3.97;;;0.43;;
31004;SDS011;17676;52.254;4.490;2022-10-26T11:17:35;10.40;;;0.85;;
31004;SDS011;17676;52.254;4.490;2022-10-26T11:20:07;8.05;;;0.40;;
31004;SDS011;17676;52.254;4.490;2022-10-26T11:22:38;7.20;;;0.60;;
31004;SDS011;17676;52.254;4.490;2022-10-26T11:25:04;7.50;;;0.60;;
31004;SDS011;17676;52.254;4.490;2022-10-26T11:27:36;4.55;;;0.50;;
31004;SDS011;17676;52.254;4.490;2022-10-26T11:32:51;4.38;;;0.65;;
31004;SDS011;17676;52.254;4.490;2022-10-26T11:35:28;6.40;;;0.80;;
31004;SDS011;17676;52.254;4.490;2022-10-26T11:45:37;5.85;;;0.30;;
31004;SDS011;17676;52.254;4.490;2022-10-26T11:48:15;5.65;;;0.40;;
31004;SDS011;17676;52.254;4.490;2022-10-26T11:50:44;11.95;;;1.08;;
31004;SDS011;17676;52.254;4.490;2022-10-26T11:53:16;8.02;;;0.68;;
31004;SDS011;17676;52.254;4.490;2022-10-26T11:55:45;14.80;;;1.40;;
31004;SDS011;17676;52.254;4.490;2022-10-26T11:58:11;9.32;;;0.70;;
31004;SDS011;17676;52.254;4.490;2022-10-26T12:00:42;10.18;;;0.73;;
31004;SDS011;17676;52.254;4.490;2022-10-26T12:03:10;13.73;;;1.13;;
31004;SDS011;17676;52.254;4.490;2022-10-26T12:08:05;12.68;;;1.00;;
31004;SDS011;17676;52.254;4.490;2022-10-26T12:10:32;8.63;;;0.85;;
31004;SDS011;17676;52.254;4.490;2022-10-26T12:13:14;11.00;;;0.88;;
31004;SDS011;17676;52.254;4.490;2022-10-26T12:20:54;8.60;;;0.90;;
31004;SDS011;17676;52.254;4.490;2022-10-26T12:23:20;11.52;;;0.80;;
31004;SDS011;17676;52.254;4.490;2022-10-26T12:25:46;5.20;;;0.75;;
31004;SDS011;17676;52.254;4.490;2022-10-26T12:33:56;8.00;;;0.85;;
31004;SDS011;17676;52.254;4.490;2022-10-26T12:39:15;10.98;;;0.70;;
31004;SDS011;17676;52.254;4.490;2022-10-26T12:46:55;14.85;;;1.25;;
31004;SDS011;17676;52.254;4.490;2022-10-26T12:52:12;6.38;;;0.52;;
31004;SDS011;17676;52.254;4.490;2022-10-26T12:54:44;7.95;;;0.73;;
31004;SDS011;17676;52.254;4.490;2022-10-26T12:59:43;5.60;;;0.68;;
31004;SDS011;17676;52.254;4.490;2022-10-26T13:05:06;5.18;;;0.30;;
31004;SDS011;17676;52.254;4.490;2022-10-26T13:07:40;6.38;;;0.35;;
31004;SDS011;17676;52.254;4.490;2022-10-26T13:15:20;4.05;;;0.45;;
31004;SDS011;17676;52.254;4.490;2022-10-26T13:17:53;6.53;;;0.40;;
31004;SDS011;17676;52.254;4.490;2022-10-26T13:20:19;6.88;;;0.50;;
31004;SDS011;17676;52.254;4.490;2022-10-26T13:22:45;5.40;;;0.30;;
31004;SDS011;17676;52.254;4.490;2022-10-26T13:25:15;6.45;;;0.43;;
31004;SDS011;17676;52.254;4.490;2022-10-26T13:27:43;5.68;;;0.40;;
31004;SDS011;17676;52.254;4.490;2022-10-26T13:30:12;3.25;;;0.43;;
31004;SDS011;17676;52.254;4.490;2022-10-26T13:32:41;4.35;;;0.38;;
31004;SDS011;17676;52.254;4.490;2022-10-26T13:35:12;8.50;;;0.38;;
31004;SDS011;17676;52.254;4.490;2022-10-26T13:37:40;6.32;;;0.60;;
31004;SDS011;17676;52.254;4.490;2022-10-26T13:40:09;3.47;;;0.30;;
31004;SDS011;17676;52.254;4.490;2022-10-26T13:42:43;10.15;;;0.65;;
31004;SDS011;17676;52.254;4.490;2022-10-26T13:45:11;3.08;;;0.30;;
31004;SDS011;17676;52.254;4.490;2022-10-26T13:50:23;6.35;;;0.50;;
31004;SDS011;17676;52.254;4.490;2022-10-26T13:52:50;4.28;;;0.30;;
31004;SDS011;17676;52.254;4.490;2022-10-26T13:55:25;2.88;;;0.30;;
31004;SDS011;17676;52.254;4.490;2022-10-26T14:00:22;4.90;;;0.20;;
31004;SDS011;17676;52.254;4.490;2022-10-26T14:02:47;5.07;;;0.30;;
31004;SDS011;17676;52.254;4.490;2022-10-26T14:05:14;5.25;;;0.40;;
31004;SDS011;17676;52.254;4.490;2022-10-26T14:07:43;5.18;;;0.30;;
31004;SDS011;17676;52.254;4.490;2022-10-26T14:10:23;4.43;;;0.40;;
31004;SDS011;17676;52.254;4.490;2022-10-26T14:12:49;3.72;;;0.32;;
31004;SDS011;17676;52.254;4.490;2022-10-26T14:15:14;5.47;;;0.40;;
31004;SDS011;17676;52.254;4.490;2022-10-26T14:17:41;5.72;;;0.20;;
31004;SDS011;17676;52.254;4.490;2022-10-26T14:20:06;8.38;;;0.45;;
31004;SDS011;17676;52.254;4.490;2022-10-26T14:22:40;5.40;;;0.30;;
31004;SDS011;17676;52.254;4.490;2022-10-26T14:28:02;3.40;;;0.45;;
31004;SDS011;17676;52.254;4.490;2022-10-26T14:30:29;3.80;;;0.40;;
31004;SDS011;17676;52.254;4.490;2022-10-26T14:32:55;4.15;;;0.30;;
31004;SDS011;17676;52.254;4.490;2022-10-26T14:35:22;4.93;;;0.50;;
31004;SDS011;17676;52.254;4.490;2022-10-26T14:37:52;3.92;;;0.30;;
31004;SDS011;17676;52.254;4.490;2022-10-26T14:40:18;7.05;;;0.50;;
31004;SDS011;17676;52.254;4.490;2022-10-26T14:42:44;4.95;;;0.40;;
31004;SDS011;17676;52.254;4.490;2022-10-26T14:45:33;4.57;;;0.30;;
31004;SDS011;17676;52.254;4.490;2022-10-26T14:48:00;3.70;;;0.38;;
31004;SDS011;17676;52.254;4.490;2022-10-26T14:50:26;5.63;;;0.52;;
31004;SDS011;17676;52.254;4.490;2022-10-26T14:53:02;3.97;;;0.30;;
31004;SDS011;17676;52.254;4.490;2022-10-26T14:55:28;3.85;;;0.35;;
31004;SDS011;17676;52.254;4.490;2022-10-26T15:03:36;5.72;;;0.60;;
31004;SDS011;17676;52.254;4.490;2022-10-26T15:08:46;4.50;;;0.30;;
31004;SDS011;17676;52.254;4.490;2022-10-26T15:11:12;8.30;;;0.22;;
31004;SDS011;17676;52.254;4.490;2022-10-26T15:13:39;6.13;;;0.32;;
31004;SDS011;17676;52.254;4.490;2022-10-26T15:16:07;4.20;;;0.30;;
31004;SDS011;17676;52.254;4.490;2022-10-26T15:18:33;4.53;;;0.40;;
31004;SDS011;17676;52.254;4.490;2022-10-26T15:21:00;2.53;;;0.32;;
31004;SDS011;17676;52.254;4.490;2022-10-26T15:23:25;5.55;;;0.30;;
31004;SDS011;17676;52.254;4.490;2022-10-26T15:25:55;6.60;;;0.30;;
31004;SDS011;17676;52.254;4.490;2022-10-26T15:28:31;5.93;;;0.40;;
31004;SDS011;17676;52.254;4.490;2022-10-26T15:31:04;7.65;;;0.52;;
31004;SDS011;17676;52.254;4.490;2022-10-26T15:33:30;7.38;;;0.45;;
31004;SDS011;17676;52.254;4.490;2022-10-26T15:38:35;8.07;;;0.50;;
31004;SDS011;17676;52.254;4.490;2022-10-26T15:41:01;9.40;;;0.60;;
31004;SDS011;17676;52.254;4.490;2022-10-26T15:43:27;5.53;;;0.60;;
31004;SDS011;17676;52.254;4.490;2022-10-26T15:45:53;9.10;;;0.63;;
31004;SDS011;17676;52.254;4.490;2022-10-26T15:48:24;6.13;;;0.82;;
31004;SDS011;17676;52.254;4.490;2022-10-26T15:50:51;6.55;;;0.35;;
31004;SDS011;17676;52.254;4.490;2022-10-26T15:53:18;9.57;;;0.80;;
31004;SDS011;17676;52.254;4.490;2022-10-26T15:55:44;5.70;;;0.40;;
31004;SDS011;17676;52.254;4.490;2022-10-26T15:58:09;7.05;;;0.50;;
31004;SDS011;17676;52.254;4.490;2022-10-26T16:00:35;9.43;;;0.60;;
31004;SDS011;17676;52.254;4.490;2022-10-26T16:03:01;11.48;;;0.60;;
31004;SDS011;17676;52.254;4.490;2022-10-26T16:05:28;13.15;;;1.23;;
31004;SDS011;17676;52.254;4.490;2022-10-26T16:07:54;7.15;;;0.47;;
31004;SDS011;17676;52.254;4.490;2022-10-26T16:10:21;7.93;;;1.02;;
31004;SDS011;17676;52.254;4.490;2022-10-26T16:12:46;9.27;;;0.70;;
31004;SDS011;17676;52.254;4.490;2022-10-26T16:15:18;11.55;;;0.68;;
31004;SDS011;17676;52.254;4.490;2022-10-26T16:17:44;11.23;;;1.25;;
31004;SDS011;17676;52.254;4.490;2022-10-26T16:20:11;10.30;;;0.90;;
31004;SDS011;17676;52.254;4.490;2022-10-26T16:22:37;12.48;;;0.80;;
31004;SDS011;17676;52.254;4.490;2022-10-26T16:25:05;12.63;;;0.70;;
31004;SDS011;17676;52.254;4.490;2022-10-26T16:27:30;13.98;;;0.88;;
31004;SDS011;17676;52.254;4.490;2022-10-26T16:29:56;9.70;;;0.77;;
31004;SDS011;17676;52.254;4.490;2022-10-26T16:32:21;14.93;;;1.50;;
31004;SDS011;17676;52.254;4.490;2022-10-26T16:34:47;5.00;;;0.40;;
31004;SDS011;17676;52.254;4.490;2022-10-26T16:37:12;10.98;;;0.70;;
31004;SDS011;17676;52.254;4.490;2022-10-26T16:39:37;10.95;;;0.60;;
31004;SDS011;17676;52.254;4.490;2022-10-26T16:42:03;12.70;;;0.90;;
31004;SDS011;17676;52.254;4.490;2022-10-26T16:44:28;12.60;;;0.90;;
31004;SDS011;17676;52.254;4.490;2022-10-26T16:46:54;9.63;;;0.75;;
31004;SDS011;17676;52.254;4.490;2022-10-26T16:49:20;11.63;;;0.50;;
31004;SDS011;17676;52.254;4.490;2022-10-26T16:51:45;10.45;;;0.90;;
31004;SDS011;17676;52.254;4.490;2022-10-26T16:54:10;9.95;;;0.90;;
31004;SDS011;17676;52.254;4.490;2022-10-26T16:56:36;9.15;;;1.15;;
31004;SDS011;17676;52.254;4.490;2022-10-26T16:59:03;12.35;;;0.47;;
31004;SDS011;17676;52.254;4.490;2022-10-26T17:01:31;10.98;;;0.93;;
31004;SDS011;17676;52.254;4.490;2022-10-26T17:03:57;8.90;;;1.10;;
31004;SDS011;17676;52.254;4.490;2022-10-26T17:09:00;10.82;;;0.55;;
31004;SDS011;17676;52.254;4.490;2022-10-26T17:11:25;9.63;;;1.15;;
31004;SDS011;17676;52.254;4.490;2022-10-26T17:13:54;8.85;;;1.30;;
31004;SDS011;17676;52.254;4.490;2022-10-26T17:16:20;12.73;;;0.93;;
31004;SDS011;17676;52.254;4.490;2022-10-26T17:18:46;19.10;;;1.70;;
31004;SDS011;17676;52.254;4.490;2022-10-26T17:21:12;11.32;;;0.80;;
31004;SDS011;17676;52.254;4.490;2022-10-26T17:23:38;12.48;;;1.52;;
31004;SDS011;17676;52.254;4.490;2022-10-26T17:26:04;9.77;;;0.60;;
31004;SDS011;17676;52.254;4.490;2022-10-26T17:28:30;7.35;;;0.88;;
31004;SDS011;17676;52.254;4.490;2022-10-26T17:31:09;8.80;;;0.93;;
31004;SDS011;17676;52.254;4.490;2022-10-26T17:33:36;9.98;;;0.85;;
31004;SDS011;17676;52.254;4.490;2022-10-26T17:36:04;11.20;;;0.85;;
31004;SDS011;17676;52.254;4.490;2022-10-26T17:38:30;9.50;;;0.55;;